nws-alerts: Checking more than four warning/county codes can delay the loading of your pages. You should use a cron job to get the data.
EllijayWeather Station Historical Data
Daily Summary for May 11, 2019 Units:  Both    English   Metric
Daily Weekly Monthly Yearly Custom
  High: Low: Average:
Temperature: 73.8 °F /  23.2 °C 65.1 °F /  18.4 °C 68.5 °F /  20.3 °C
Dew Point: 70.2 °F /  21.2 °C 64.6 °F /  18.1 °C 67.3 °F /  19.6 °C
Humidity: 99% 84% 96%
Wind Speed: 2mph /  3.2km/h - 0mph /  0km/h
Wind Gust: 8mph /  12.9km/h - -
Wind- - East
Pressure: 30.06 in /  1017.8 hPa 29.82 in /  1009.7 hPa -
Precipitation: 0.64 in /  16.26 mm    
Historical Graphs
 
 
Tabular Data for May 11, 2019
Time Temperature Dew Point Pressure Wind Wind Speed Wind Gust Humidity Rainfall Rate (Hourly) solar
00:04 66.9 °F /  19.4 °C 65.7 °F /  18.7 °C 30.06in /  1017.8hPa Calm     96% 0.05in /  1.27mm meteobridge W/m2
00:09 66.7 °F /  19.3 °C 65.5 °F /  18.6 °C 30.05in /  1017.5hPa Calm     96% 0.06in /  1.52mm meteobridge W/m2
00:14 66.7 °F /  19.3 °C 65.5 °F /  18.6 °C 30.05in /  1017.5hPa Calm     96% 0.07in /  1.78mm meteobridge W/m2
00:19 66.6 °F /  19.2 °C 65.3 °F /  18.5 °C 30.05in /  1017.5hPa Calm     96% 0.07in /  1.78mm meteobridge W/m2
00:24 66.6 °F /  19.2 °C 65.7 °F /  18.7 °C 30.05in /  1017.5hPa Calm     97% 0.08in /  2.03mm meteobridge W/m2
00:29 66.6 °F /  19.2 °C 65.7 °F /  18.7 °C 30.05in /  1017.5hPa Calm     97% 0.09in /  2.29mm meteobridge W/m2
00:34 66.6 °F /  19.2 °C 65.7 °F /  18.7 °C 30.05in /  1017.5hPa Calm     97% 0.09in /  2.29mm meteobridge W/m2
00:39 66.6 °F /  19.2 °C 65.7 °F /  18.7 °C 30.05in /  1017.5hPa Calm     97% 0.1in /  2.54mm meteobridge W/m2
00:44 66.6 °F /  19.2 °C 65.7 °F /  18.7 °C 30.05in /  1017.5hPa Calm     97% 0.09in /  2.29mm meteobridge W/m2
00:49 66.4 °F /  19.1 °C 65.5 °F /  18.6 °C 30.04in /  1017.2hPa Calm     97% 0.09in /  2.29mm meteobridge W/m2
00:54 66.4 °F /  19.1 °C 65.5 °F /  18.6 °C 30.03in /  1016.8hPa Calm     97% 0.08in /  2.03mm meteobridge W/m2
00:59 66.2 °F /  19 °C 65.3 °F /  18.5 °C 30.03in /  1016.8hPa Calm     97% 0.08in /  2.03mm meteobridge W/m2
01:04 66.2 °F /  19 °C 65.3 °F /  18.5 °C 30.02in /  1016.5hPa Calm     97% 0.07in /  1.78mm meteobridge W/m2
01:09 66.2 °F /  19 °C 65.3 °F /  18.5 °C 30.03in /  1016.8hPa Calm     97% 0.06in /  1.52mm meteobridge W/m2
01:14 66 °F /  18.9 °C 65.1 °F /  18.4 °C 30.02in /  1016.5hPa Calm     97% 0.05in /  1.27mm meteobridge W/m2
01:19 66.2 °F /  19 °C 65.7 °F /  18.7 °C 30.03in /  1016.8hPa Calm     98% 0.04in /  1.02mm meteobridge W/m2
01:24 66.2 °F /  19 °C 65.3 °F /  18.5 °C 30.03in /  1016.8hPa Calm     97% 0.04in /  1.02mm meteobridge W/m2
01:29 66 °F /  18.9 °C 65.1 °F /  18.4 °C 30.02in /  1016.5hPa Calm     97% 0.03in /  0.76mm meteobridge W/m2
01:34 66 °F /  18.9 °C 65.1 °F /  18.4 °C 30.02in /  1016.5hPa Calm     97% 0.03in /  0.76mm meteobridge W/m2
01:39 66 °F /  18.9 °C 65.1 °F /  18.4 °C 30.02in /  1016.5hPa Calm     97% 0.02in /  0.51mm meteobridge W/m2
01:44 66 °F /  18.9 °C 65.1 °F /  18.4 °C 30.02in /  1016.5hPa Calm     97% 0.02in /  0.51mm meteobridge W/m2
01:49 66 °F /  18.9 °C 65.5 °F /  18.6 °C 30.01in /  1016.1hPa Calm     98% 0.01in /  0.25mm meteobridge W/m2
01:54 66 °F /  18.9 °C 65.5 °F /  18.6 °C 30.01in /  1016.1hPa Calm     98% 0.01in /  0.25mm meteobridge W/m2
01:59 66 °F /  18.9 °C 65.5 °F /  18.6 °C 30.01in /  1016.1hPa Calm     98% 0in /  0mm meteobridge W/m2
02:04 65.8 °F /  18.8 °C 65.3 °F /  18.5 °C 30.01in /  1016.1hPa Calm     98% 0in /  0mm meteobridge W/m2
02:09 65.8 °F /  18.8 °C 65.3 °F /  18.5 °C 30.00in /  1015.8hPa Calm     98% 0in /  0mm meteobridge W/m2
02:14 65.8 °F /  18.8 °C 65.3 °F /  18.5 °C 30.00in /  1015.8hPa Calm     98% 0in /  0mm meteobridge W/m2
02:19 65.8 °F /  18.8 °C 65.3 °F /  18.5 °C 30.00in /  1015.8hPa Calm     98% 0in /  0mm meteobridge W/m2
02:24 65.7 °F /  18.7 °C 65.1 °F /  18.4 °C 30.00in /  1015.8hPa Calm     98% 0in /  0mm meteobridge W/m2
02:29 65.7 °F /  18.7 °C 65.1 °F /  18.4 °C 29.99in /  1015.5hPa Calm     98% 0in /  0mm meteobridge W/m2
02:34 65.7 °F /  18.7 °C 65.1 °F /  18.4 °C 29.99in /  1015.5hPa Calm     98% 0in /  0mm meteobridge W/m2
02:39 65.5 °F /  18.6 °C 64.9 °F /  18.3 °C 29.99in /  1015.5hPa Calm     98% 0in /  0mm meteobridge W/m2
02:44 65.5 °F /  18.6 °C 64.9 °F /  18.3 °C 29.99in /  1015.5hPa Calm     98% 0in /  0mm meteobridge W/m2
02:49 65.5 °F /  18.6 °C 64.9 °F /  18.3 °C 29.99in /  1015.5hPa Calm     98% 0in /  0mm meteobridge W/m2
02:54 65.5 °F /  18.6 °C 64.9 °F /  18.3 °C 29.99in /  1015.5hPa Calm     98% 0in /  0mm meteobridge W/m2
02:59 65.5 °F /  18.6 °C 64.9 °F /  18.3 °C 29.99in /  1015.5hPa Calm     98% 0in /  0mm meteobridge W/m2
03:04 65.5 °F /  18.6 °C 64.9 °F /  18.3 °C 29.98in /  1015.1hPa Calm     98% 0in /  0mm meteobridge W/m2
03:09 65.5 °F /  18.6 °C 64.9 °F /  18.3 °C 29.98in /  1015.1hPa Calm     98% 0in /  0mm meteobridge W/m2
03:14 65.5 °F /  18.6 °C 64.9 °F /  18.3 °C 29.98in /  1015.1hPa Calm     98% 0in /  0mm meteobridge W/m2
03:19 65.5 °F /  18.6 °C 64.9 °F /  18.3 °C 29.98in /  1015.1hPa Calm     98% 0in /  0mm meteobridge W/m2
03:24 65.3 °F /  18.5 °C 64.8 °F /  18.2 °C 29.98in /  1015.1hPa Calm     98% 0in /  0mm meteobridge W/m2
03:29 65.3 °F /  18.5 °C 64.8 °F /  18.2 °C 29.97in /  1014.8hPa Calm     98% 0in /  0mm meteobridge W/m2
03:34 65.3 °F /  18.5 °C 64.8 °F /  18.2 °C 29.97in /  1014.8hPa Calm     98% 0in /  0mm meteobridge W/m2
03:39 65.1 °F /  18.4 °C 64.6 °F /  18.1 °C 29.97in /  1014.8hPa Calm     98% 0in /  0mm meteobridge W/m2
03:44 65.1 °F /  18.4 °C 64.6 °F /  18.1 °C 29.97in /  1014.8hPa Calm     98% 0in /  0mm meteobridge W/m2
03:49 65.1 °F /  18.4 °C 64.6 °F /  18.1 °C 29.97in /  1014.8hPa Calm     98% 0in /  0mm meteobridge W/m2
03:54 65.1 °F /  18.4 °C 64.6 °F /  18.1 °C 29.96in /  1014.4hPa Calm     98% 0in /  0mm meteobridge W/m2
03:59 65.1 °F /  18.4 °C 64.6 °F /  18.1 °C 29.96in /  1014.4hPa Calm     98% 0in /  0mm meteobridge W/m2
04:04 65.1 °F /  18.4 °C 64.6 °F /  18.1 °C 29.96in /  1014.4hPa Calm     98% 0in /  0mm meteobridge W/m2
04:09 65.1 °F /  18.4 °C 64.6 °F /  18.1 °C 29.95in /  1014.1hPa Calm     98% 0in /  0mm meteobridge W/m2
04:14 65.1 °F /  18.4 °C 64.6 °F /  18.1 °C 29.95in /  1014.1hPa Calm     98% 0in /  0mm meteobridge W/m2
04:19 65.1 °F /  18.4 °C 64.6 °F /  18.1 °C 29.95in /  1014.1hPa Calm     98% 0in /  0mm meteobridge W/m2
04:24 65.1 °F /  18.4 °C 64.6 °F /  18.1 °C 29.95in /  1014.1hPa Calm     98% 0.01in /  0.25mm meteobridge W/m2
04:29 65.1 °F /  18.4 °C 64.6 °F /  18.1 °C 29.95in /  1014.1hPa Calm     98% 0.01in /  0.25mm meteobridge W/m2
04:34 65.1 °F /  18.4 °C 64.6 °F /  18.1 °C 29.96in /  1014.4hPa Calm     98% 0.01in /  0.25mm meteobridge W/m2
04:39 65.1 °F /  18.4 °C 64.6 °F /  18.1 °C 29.96in /  1014.4hPa Calm     98% 0.02in /  0.51mm meteobridge W/m2
04:44 65.3 °F /  18.5 °C 64.8 °F /  18.2 °C 29.96in /  1014.4hPa Calm     98% 0.02in /  0.51mm meteobridge W/m2
04:49 65.3 °F /  18.5 °C 64.8 °F /  18.2 °C 29.95in /  1014.1hPa Calm     98% 0.03in /  0.76mm meteobridge W/m2
04:54 65.3 °F /  18.5 °C 64.8 °F /  18.2 °C 29.95in /  1014.1hPa Calm     98% 0.03in /  0.76mm meteobridge W/m2
04:59 65.3 °F /  18.5 °C 64.8 °F /  18.2 °C 29.94in /  1013.8hPa Calm     98% 0.04in /  1.02mm meteobridge W/m2
05:04 65.1 °F /  18.4 °C 64.6 °F /  18.1 °C 29.93in /  1013.4hPa Calm     98% 0.04in /  1.02mm meteobridge W/m2
05:09 65.3 °F /  18.5 °C 64.8 °F /  18.2 °C 29.93in /  1013.4hPa Calm     98% 0.05in /  1.27mm meteobridge W/m2
05:14 65.3 °F /  18.5 °C 64.9 °F /  18.3 °C 29.93in /  1013.4hPa Calm     99% 0.05in /  1.27mm meteobridge W/m2
05:19 65.5 °F /  18.6 °C 64.9 °F /  18.3 °C 29.94in /  1013.8hPa Calm     98% 0.06in /  1.52mm meteobridge W/m2
05:24 65.5 °F /  18.6 °C 65.1 °F /  18.4 °C 29.94in /  1013.8hPa Calm     99% 0.05in /  1.27mm meteobridge W/m2
05:29 65.5 °F /  18.6 °C 65.1 °F /  18.4 °C 29.95in /  1014.1hPa Calm     99% 0.06in /  1.52mm meteobridge W/m2
05:34 65.5 °F /  18.6 °C 65.1 °F /  18.4 °C 29.95in /  1014.1hPa Calm     99% 0.06in /  1.52mm meteobridge W/m2
05:39 65.5 °F /  18.6 °C 65.1 °F /  18.4 °C 29.93in /  1013.4hPa NE 0.9mph /  1.4km/h 3mph /  4.8km/h 99% 0.06in /  1.52mm meteobridge W/m2
05:44 65.5 °F /  18.6 °C 65.1 °F /  18.4 °C 29.93in /  1013.4hPa ENE 0.9mph /  1.4km/h 3mph /  4.8km/h 99% 0.07in /  1.78mm meteobridge W/m2
05:49 65.7 °F /  18.7 °C 65.3 °F /  18.5 °C 29.95in /  1014.1hPa Calm     99% 0.07in /  1.78mm meteobridge W/m2
05:54 65.7 °F /  18.7 °C 65.3 °F /  18.5 °C 29.95in /  1014.1hPa Calm   2mph /  3.2km/h 99% 0.08in /  2.03mm meteobridge W/m2
05:59 65.7 °F /  18.7 °C 65.3 °F /  18.5 °C 29.95in /  1014.1hPa Calm     99% 0.08in /  2.03mm meteobridge W/m2
06:04 65.7 °F /  18.7 °C 65.3 °F /  18.5 °C 29.95in /  1014.1hPa Calm     99% 0.09in /  2.29mm meteobridge W/m2
06:09 65.8 °F /  18.8 °C 65.5 °F /  18.6 °C 29.94in /  1013.8hPa Calm   1mph /  1.6km/h 99% 0.09in /  2.29mm meteobridge W/m2
06:14 65.8 °F /  18.8 °C 65.5 °F /  18.6 °C 29.94in /  1013.8hPa Calm     99% 0.1in /  2.54mm meteobridge W/m2
06:19 65.8 °F /  18.8 °C 65.5 °F /  18.6 °C 29.94in /  1013.8hPa Calm     99% 0.1in /  2.54mm meteobridge W/m2
06:24 65.8 °F /  18.8 °C 65.5 °F /  18.6 °C 29.94in /  1013.8hPa Calm     99% 0.1in /  2.54mm meteobridge W/m2
06:29 65.8 °F /  18.8 °C 65.5 °F /  18.6 °C 29.95in /  1014.1hPa Calm     99% 0.1in /  2.54mm meteobridge W/m2
06:34 66 °F /  18.9 °C 65.7 °F /  18.7 °C 29.94in /  1013.8hPa Calm     99% 0.11in /  2.79mm meteobridge W/m2
06:39 65.8 °F /  18.8 °C 65.5 °F /  18.6 °C 29.95in /  1014.1hPa Calm     99% 0.11in /  2.79mm meteobridge W/m2
06:44 65.8 °F /  18.8 °C 65.5 °F /  18.6 °C 29.95in /  1014.1hPa Calm     99% 0.11in /  2.79mm meteobridge W/m2
06:49 65.8 °F /  18.8 °C 65.5 °F /  18.6 °C 29.95in /  1014.1hPa Calm     99% 0.11in /  2.79mm meteobridge W/m2
06:54 66 °F /  18.9 °C 65.7 °F /  18.7 °C 29.95in /  1014.1hPa Calm     99% 0.1in /  2.54mm meteobridge W/m2
06:59 65.8 °F /  18.8 °C 65.5 °F /  18.6 °C 29.95in /  1014.1hPa Calm     99% 0.1in /  2.54mm meteobridge W/m2
07:04 66 °F /  18.9 °C 65.7 °F /  18.7 °C 29.95in /  1014.1hPa Calm     99% 0.1in /  2.54mm meteobridge W/m2
07:09 66 °F /  18.9 °C 65.7 °F /  18.7 °C 29.95in /  1014.1hPa Calm     99% 0.1in /  2.54mm meteobridge W/m2
07:14 66 °F /  18.9 °C 65.7 °F /  18.7 °C 29.95in /  1014.1hPa Calm     99% 0.1in /  2.54mm meteobridge W/m2
07:19 66 °F /  18.9 °C 65.7 °F /  18.7 °C 29.95in /  1014.1hPa Calm     99% 0.09in /  2.29mm meteobridge W/m2
07:24 66 °F /  18.9 °C 65.7 °F /  18.7 °C 29.95in /  1014.1hPa Calm     99% 0.1in /  2.54mm meteobridge W/m2
07:29 66 °F /  18.9 °C 65.7 °F /  18.7 °C 29.95in /  1014.1hPa Calm     99% 0.09in /  2.29mm meteobridge W/m2
07:34 66 °F /  18.9 °C 65.7 °F /  18.7 °C 29.95in /  1014.1hPa Calm     99% 0.09in /  2.29mm meteobridge W/m2
07:39 66.2 °F /  19 °C 65.8 °F /  18.8 °C 29.95in /  1014.1hPa Calm     99% 0.09in /  2.29mm meteobridge W/m2
07:44 66.4 °F /  19.1 °C 66 °F /  18.9 °C 29.96in /  1014.4hPa Calm     99% 0.09in /  2.29mm meteobridge W/m2
07:49 66.4 °F /  19.1 °C 66 °F /  18.9 °C 29.95in /  1014.1hPa Calm     99% 0.08in /  2.03mm meteobridge W/m2
07:54 66.6 °F /  19.2 °C 66.2 °F /  19 °C 29.95in /  1014.1hPa Calm     99% 0.09in /  2.29mm meteobridge W/m2
07:59 66.6 °F /  19.2 °C 66.2 °F /  19 °C 29.95in /  1014.1hPa Calm     99% 0.08in /  2.03mm meteobridge W/m2
08:04 66.7 °F /  19.3 °C 66.4 °F /  19.1 °C 29.95in /  1014.1hPa Calm     99% 0.08in /  2.03mm meteobridge W/m2
08:09 66.7 °F /  19.3 °C 66.4 °F /  19.1 °C 29.95in /  1014.1hPa Calm     99% 0.07in /  1.78mm meteobridge W/m2
08:14 66.7 °F /  19.3 °C 66.4 °F /  19.1 °C 29.96in /  1014.4hPa Calm     99% 0.07in /  1.78mm meteobridge W/m2
08:19 66.9 °F /  19.4 °C 66.6 °F /  19.2 °C 29.96in /  1014.4hPa Calm     99% 0.07in /  1.78mm meteobridge W/m2
08:24 66.9 °F /  19.4 °C 66.6 °F /  19.2 °C 29.95in /  1014.1hPa Calm     99% 0.07in /  1.78mm meteobridge W/m2
08:29 66.9 °F /  19.4 °C 66.6 °F /  19.2 °C 29.96in /  1014.4hPa Calm     99% 0.07in /  1.78mm meteobridge W/m2
08:34 67.1 °F /  19.5 °C 66.7 °F /  19.3 °C 29.95in /  1014.1hPa Calm     99% 0.07in /  1.78mm meteobridge W/m2
08:39 67.3 °F /  19.6 °C 66.9 °F /  19.4 °C 29.96in /  1014.4hPa Calm     99% 0.06in /  1.52mm meteobridge W/m2
08:44 67.3 °F /  19.6 °C 66.9 °F /  19.4 °C 29.96in /  1014.4hPa Calm   1mph /  1.6km/h 99% 0.05in /  1.27mm meteobridge W/m2
08:49 67.3 °F /  19.6 °C 66.9 °F /  19.4 °C 29.96in /  1014.4hPa Calm     99% 0.06in /  1.52mm meteobridge W/m2
08:54 67.3 °F /  19.6 °C 66.9 °F /  19.4 °C 29.96in /  1014.4hPa Calm     99% 0.05in /  1.27mm meteobridge W/m2
08:59 67.5 °F /  19.7 °C 67.1 °F /  19.5 °C 29.96in /  1014.4hPa Calm     99% 0.06in /  1.52mm meteobridge W/m2
09:04 67.5 °F /  19.7 °C 67.1 °F /  19.5 °C 29.96in /  1014.4hPa Calm     99% 0.05in /  1.27mm meteobridge W/m2
09:09 67.5 °F /  19.7 °C 67.1 °F /  19.5 °C 29.96in /  1014.4hPa Calm     99% 0.05in /  1.27mm meteobridge W/m2
09:14 67.5 °F /  19.7 °C 67.1 °F /  19.5 °C 29.96in /  1014.4hPa Calm     99% 0.05in /  1.27mm meteobridge W/m2
09:19 67.6 °F /  19.8 °C 67.3 °F /  19.6 °C 29.96in /  1014.4hPa Calm     99% 0.05in /  1.27mm meteobridge W/m2
09:24 67.6 °F /  19.8 °C 67.3 °F /  19.6 °C 29.96in /  1014.4hPa Calm     99% 0.05in /  1.27mm meteobridge W/m2
09:29 67.8 °F /  19.9 °C 67.5 °F /  19.7 °C 29.96in /  1014.4hPa Calm     99% 0.05in /  1.27mm meteobridge W/m2
09:34 67.6 °F /  19.8 °C 67.3 °F /  19.6 °C 29.96in /  1014.4hPa Calm     99% 0.04in /  1.02mm meteobridge W/m2
09:39 67.8 °F /  19.9 °C 67.5 °F /  19.7 °C 29.96in /  1014.4hPa Calm     99% 0.04in /  1.02mm meteobridge W/m2
09:44 68 °F /  20 °C 67.6 °F /  19.8 °C 29.96in /  1014.4hPa Calm     99% 0.05in /  1.27mm meteobridge W/m2
09:49 68 °F /  20 °C 67.6 °F /  19.8 °C 29.96in /  1014.4hPa Calm     99% 0.04in /  1.02mm meteobridge W/m2
09:54 68 °F /  20 °C 67.6 °F /  19.8 °C 29.97in /  1014.8hPa Calm     99% 0.04in /  1.02mm meteobridge W/m2
09:59 68.2 °F /  20.1 °C 67.8 °F /  19.9 °C 29.97in /  1014.8hPa Calm     99% 0.04in /  1.02mm meteobridge W/m2
10:04 68.2 °F /  20.1 °C 67.8 °F /  19.9 °C 29.97in /  1014.8hPa Calm   1mph /  1.6km/h 99% 0.04in /  1.02mm meteobridge W/m2
10:09 68.2 °F /  20.1 °C 67.8 °F /  19.9 °C 29.97in /  1014.8hPa Calm     99% 0.04in /  1.02mm meteobridge W/m2
10:14 68.2 °F /  20.1 °C 67.8 °F /  19.9 °C 29.97in /  1014.8hPa Calm     99% 0.03in /  0.76mm meteobridge W/m2
10:19 68.4 °F /  20.2 °C 68 °F /  20 °C 29.97in /  1014.8hPa Calm     99% 0.04in /  1.02mm meteobridge W/m2
10:24 68.4 °F /  20.2 °C 68 °F /  20 °C 29.97in /  1014.8hPa Calm     99% 0.03in /  0.76mm meteobridge W/m2
10:29 68.4 °F /  20.2 °C 68 °F /  20 °C 29.97in /  1014.8hPa Calm     99% 0.03in /  0.76mm meteobridge W/m2
10:34 68.4 °F /  20.2 °C 68 °F /  20 °C 29.97in /  1014.8hPa NNE 0.9mph /  1.4km/h 2mph /  3.2km/h 99% 0.04in /  1.02mm meteobridge W/m2
10:39 68.4 °F /  20.2 °C 68 °F /  20 °C 29.97in /  1014.8hPa Calm     99% 0.04in /  1.02mm meteobridge W/m2
10:44 68.4 °F /  20.2 °C 68 °F /  20 °C 29.97in /  1014.8hPa Calm     99% 0.03in /  0.76mm meteobridge W/m2
10:49 68.4 °F /  20.2 °C 68 °F /  20 °C 29.97in /  1014.8hPa Calm     99% 0.03in /  0.76mm meteobridge W/m2
10:54 68.5 °F /  20.3 °C 68.2 °F /  20.1 °C 29.97in /  1014.8hPa Calm     99% 0.03in /  0.76mm meteobridge W/m2
10:59 68.5 °F /  20.3 °C 68.2 °F /  20.1 °C 29.96in /  1014.4hPa Calm     99% 0.03in /  0.76mm meteobridge W/m2
11:04 68.7 °F /  20.4 °C 68.4 °F /  20.2 °C 29.96in /  1014.4hPa Calm     99% 0.03in /  0.76mm meteobridge W/m2
11:09 68.9 °F /  20.5 °C 68.5 °F /  20.3 °C 29.96in /  1014.4hPa Calm     99% 0.03in /  0.76mm meteobridge W/m2
11:14 68.7 °F /  20.4 °C 68.4 °F /  20.2 °C 29.96in /  1014.4hPa Calm   2mph /  3.2km/h 99% 0.04in /  1.02mm meteobridge W/m2
11:19 68.7 °F /  20.4 °C 68.4 °F /  20.2 °C 29.96in /  1014.4hPa Calm     99% 0.03in /  0.76mm meteobridge W/m2
11:24 68.9 °F /  20.5 °C 68.5 °F /  20.3 °C 29.96in /  1014.4hPa Calm   2mph /  3.2km/h 99% 0.03in /  0.76mm meteobridge W/m2
11:29 69.3 °F /  20.7 °C 68.9 °F /  20.5 °C 29.96in /  1014.4hPa Calm     99% 0.03in /  0.76mm meteobridge W/m2
11:34 69.4 °F /  20.8 °C 69.1 °F /  20.6 °C 29.96in /  1014.4hPa Calm     99% 0.02in /  0.51mm meteobridge W/m2
11:39 69.4 °F /  20.8 °C 69.1 °F /  20.6 °C 29.96in /  1014.4hPa Calm     99% 0.02in /  0.51mm meteobridge W/m2
11:44 69.3 °F /  20.7 °C 68.7 °F /  20.4 °C 29.96in /  1014.4hPa Calm     98% 0.03in /  0.76mm meteobridge W/m2
11:49 69.3 °F /  20.7 °C 68.7 °F /  20.4 °C 29.96in /  1014.4hPa Calm   1mph /  1.6km/h 98% 0.03in /  0.76mm meteobridge W/m2
11:54 69.1 °F /  20.6 °C 68.5 °F /  20.3 °C 29.96in /  1014.4hPa Calm     98% 0.03in /  0.76mm meteobridge W/m2
11:59 69.1 °F /  20.6 °C 68.5 °F /  20.3 °C 29.96in /  1014.4hPa Calm     98% 0.02in /  0.51mm meteobridge W/m2
12:04 68.5 °F /  20.3 °C 68 °F /  20 °C 29.96in /  1014.4hPa Calm     98% 0.03in /  0.76mm meteobridge W/m2
12:09 68.5 °F /  20.3 °C 68 °F /  20 °C 29.96in /  1014.4hPa Calm     98% 0.03in /  0.76mm meteobridge W/m2
12:14 68.5 °F /  20.3 °C 68 °F /  20 °C 29.96in /  1014.4hPa Calm   2mph /  3.2km/h 98% 0.02in /  0.51mm meteobridge W/m2
12:19 68.5 °F /  20.3 °C 68 °F /  20 °C 29.96in /  1014.4hPa Calm     98% 0.03in /  0.76mm meteobridge W/m2
12:24 68.4 °F /  20.2 °C 67.8 °F /  19.9 °C 29.96in /  1014.4hPa Calm     98% 0.03in /  0.76mm meteobridge W/m2
12:29 68.5 °F /  20.3 °C 68 °F /  20 °C 29.96in /  1014.4hPa Calm   1mph /  1.6km/h 98% 0.03in /  0.76mm meteobridge W/m2
12:34 68.4 °F /  20.2 °C 67.8 °F /  19.9 °C 29.96in /  1014.4hPa Calm     98% 0.03in /  0.76mm meteobridge W/m2
12:39 68.5 °F /  20.3 °C 68.2 °F /  20.1 °C 29.96in /  1014.4hPa Calm   1mph /  1.6km/h 99% 0.04in /  1.02mm meteobridge W/m2
12:44 68.5 °F /  20.3 °C 68.2 °F /  20.1 °C 29.96in /  1014.4hPa Calm     99% 0.03in /  0.76mm meteobridge W/m2
12:49 68.7 °F /  20.4 °C 68.4 °F /  20.2 °C 29.96in /  1014.4hPa Calm     99% 0.03in /  0.76mm meteobridge W/m2
12:54 69.1 °F /  20.6 °C 68.7 °F /  20.4 °C 29.96in /  1014.4hPa Calm     99% 0.03in /  0.76mm meteobridge W/m2
12:59 69.3 °F /  20.7 °C 68.9 °F /  20.5 °C 29.96in /  1014.4hPa Calm   1mph /  1.6km/h 99% 0.03in /  0.76mm meteobridge W/m2
13:04 69.6 °F /  20.9 °C 69.3 °F /  20.7 °C 29.95in /  1014.1hPa Calm   2mph /  3.2km/h 99% 0.02in /  0.51mm meteobridge W/m2
13:09 69.6 °F /  20.9 °C 69.3 °F /  20.7 °C 29.95in /  1014.1hPa Calm   1mph /  1.6km/h 99% 0.02in /  0.51mm meteobridge W/m2
13:14 69.4 °F /  20.8 °C 68.9 °F /  20.5 °C 29.94in /  1013.8hPa Calm     98% 0.03in /  0.76mm meteobridge W/m2
13:19 69.4 °F /  20.8 °C 68.9 °F /  20.5 °C 29.94in /  1013.8hPa Calm     98% 0.02in /  0.51mm meteobridge W/m2
13:24 69.4 °F /  20.8 °C 68.9 °F /  20.5 °C 29.94in /  1013.8hPa Calm   1mph /  1.6km/h 98% 0.02in /  0.51mm meteobridge W/m2
13:29 69.4 °F /  20.8 °C 68.9 °F /  20.5 °C 29.94in /  1013.8hPa Calm   1mph /  1.6km/h 98% 0.02in /  0.51mm meteobridge W/m2
13:34 69.3 °F /  20.7 °C 68.7 °F /  20.4 °C 29.94in /  1013.8hPa Calm     98% 0.03in /  0.76mm meteobridge W/m2
13:39 69.1 °F /  20.6 °C 68.5 °F /  20.3 °C 29.94in /  1013.8hPa Calm     98% 0.02in /  0.51mm meteobridge W/m2
13:44 69.1 °F /  20.6 °C 68.5 °F /  20.3 °C 29.94in /  1013.8hPa Calm   2mph /  3.2km/h 98% 0.02in /  0.51mm meteobridge W/m2
13:49 69.4 °F /  20.8 °C 69.1 °F /  20.6 °C 29.93in /  1013.4hPa Calm     99% 0.02in /  0.51mm meteobridge W/m2
13:54 70 °F /  21.1 °C 69.6 °F /  20.9 °C 29.93in /  1013.4hPa Calm   1mph /  1.6km/h 99% 0.02in /  0.51mm meteobridge W/m2
13:59 70.3 °F /  21.3 °C 70 °F /  21.1 °C 29.93in /  1013.4hPa Calm   3mph /  4.8km/h 99% 0.02in /  0.51mm meteobridge W/m2
14:04 70.5 °F /  21.4 °C 70 °F /  21.1 °C 29.92in /  1013.1hPa Calm   1mph /  1.6km/h 98% 0.02in /  0.51mm meteobridge W/m2
14:09 70.7 °F /  21.5 °C 69.8 °F /  21 °C 29.93in /  1013.4hPa Calm   1mph /  1.6km/h 97% 0.02in /  0.51mm meteobridge W/m2
14:14 70.9 °F /  21.6 °C 69.6 °F /  20.9 °C 29.92in /  1013.1hPa NNE 2mph /  3.2km/h 2mph /  3.2km/h 96% 0.01in /  0.25mm meteobridge W/m2
14:19 71.1 °F /  21.7 °C 69.8 °F /  21 °C 29.92in /  1013.1hPa Calm     96% 0.02in /  0.51mm meteobridge W/m2
14:24 71.2 °F /  21.8 °C 69.8 °F /  21 °C 29.92in /  1013.1hPa East 2mph /  3.2km/h 4mph /  6.4km/h 95% 0.02in /  0.51mm meteobridge W/m2
14:29 71.1 °F /  21.7 °C 68.9 °F /  20.5 °C 29.91in /  1012.8hPa Calm   1mph /  1.6km/h 93% 0.02in /  0.51mm meteobridge W/m2
14:34 71.1 °F /  21.7 °C 69.6 °F /  20.9 °C 29.91in /  1012.8hPa Calm     95% 0.01in /  0.25mm meteobridge W/m2
14:39 71.1 °F /  21.7 °C 69.3 °F /  20.7 °C 29.91in /  1012.8hPa Calm   2mph /  3.2km/h 94% 0.01in /  0.25mm meteobridge W/m2
14:44 71.2 °F /  21.8 °C 69.8 °F /  21 °C 29.91in /  1012.8hPa Calm     95% 0.01in /  0.25mm meteobridge W/m2
14:49 71.2 °F /  21.8 °C 69.8 °F /  21 °C 29.91in /  1012.8hPa Calm   1mph /  1.6km/h 95% 0.01in /  0.25mm meteobridge W/m2
14:54 71.2 °F /  21.8 °C 69.4 °F /  20.8 °C 29.91in /  1012.8hPa Calm     94% 0.02in /  0.51mm meteobridge W/m2
14:59 71.1 °F /  21.7 °C 69.3 °F /  20.7 °C 29.91in /  1012.8hPa Calm     94% 0.02in /  0.51mm meteobridge W/m2
15:04 71.1 °F /  21.7 °C 69.3 °F /  20.7 °C 29.91in /  1012.8hPa Calm     94% 0.02in /  0.51mm meteobridge W/m2
15:09 71.1 °F /  21.7 °C 69.6 °F /  20.9 °C 29.91in /  1012.8hPa Calm     95% 0.02in /  0.51mm meteobridge W/m2
15:14 71.1 °F /  21.7 °C 69.6 °F /  20.9 °C 29.90in /  1012.4hPa Calm   1mph /  1.6km/h 95% 0.02in /  0.51mm meteobridge W/m2
15:19 71.1 °F /  21.7 °C 69.8 °F /  21 °C 29.90in /  1012.4hPa Calm   1mph /  1.6km/h 96% 0.01in /  0.25mm meteobridge W/m2
15:24 71.2 °F /  21.8 °C 70 °F /  21.1 °C 29.90in /  1012.4hPa Calm     96% 0.01in /  0.25mm meteobridge W/m2
15:29 71.4 °F /  21.9 °C 69.3 °F /  20.7 °C 29.90in /  1012.4hPa Calm   1mph /  1.6km/h 93% 0.01in /  0.25mm meteobridge W/m2
15:34 71.8 °F /  22.1 °C 69.3 °F /  20.7 °C 29.90in /  1012.4hPa Calm     92% 0.01in /  0.25mm meteobridge W/m2
15:39 71.8 °F /  22.1 °C 69.6 °F /  20.9 °C 29.90in /  1012.4hPa Calm     93% 0.01in /  0.25mm meteobridge W/m2
15:44 71.6 °F /  22 °C 69.1 °F /  20.6 °C 29.89in /  1012.1hPa Calm     92% 0.01in /  0.25mm meteobridge W/m2
15:49 71.6 °F /  22 °C 69.4 °F /  20.8 °C 29.89in /  1012.1hPa Calm     93% 0.01in /  0.25mm meteobridge W/m2
15:54 71.8 °F /  22.1 °C 69.6 °F /  20.9 °C 29.88in /  1011.7hPa Calm   1mph /  1.6km/h 93% 0in /  0mm meteobridge W/m2
15:59 72.1 °F /  22.3 °C 69.6 °F /  20.9 °C 29.88in /  1011.7hPa Calm   2mph /  3.2km/h 92% 0in /  0mm meteobridge W/m2
16:04 72.1 °F /  22.3 °C 69.4 °F /  20.8 °C 29.88in /  1011.7hPa Calm   1mph /  1.6km/h 91% 0in /  0mm meteobridge W/m2
16:09 72.1 °F /  22.3 °C 68.7 °F /  20.4 °C 29.88in /  1011.7hPa Calm     89% 0in /  0mm meteobridge W/m2
16:14 72.3 °F /  22.4 °C 69.3 °F /  20.7 °C 29.88in /  1011.7hPa Calm   2mph /  3.2km/h 90% 0in /  0mm meteobridge W/m2
16:19 72.3 °F /  22.4 °C 69.3 °F /  20.7 °C 29.87in /  1011.4hPa Calm     90% 0.01in /  0.25mm meteobridge W/m2
16:24 72.7 °F /  22.6 °C 70.2 °F /  21.2 °C 29.87in /  1011.4hPa Calm     92% 0.01in /  0.25mm meteobridge W/m2
16:29 72.9 °F /  22.7 °C 69.4 °F /  20.8 °C 29.86in /  1011.1hPa Calm   1mph /  1.6km/h 89% 0.01in /  0.25mm meteobridge W/m2
16:34 73.2 °F /  22.9 °C 69.4 °F /  20.8 °C 29.86in /  1011.1hPa Calm   2mph /  3.2km/h 88% 0.01in /  0.25mm meteobridge W/m2
16:39 73.6 °F /  23.1 °C 69.4 °F /  20.8 °C 29.85in /  1010.7hPa NNE 0.9mph /  1.4km/h 1mph /  1.6km/h 87% 0.01in /  0.25mm meteobridge W/m2
16:44 73.6 °F /  23.1 °C 68.7 °F /  20.4 °C 29.85in /  1010.7hPa Calm   3mph /  4.8km/h 85% 0.01in /  0.25mm meteobridge W/m2
16:49 73.6 °F /  23.1 °C 69.8 °F /  21 °C 29.85in /  1010.7hPa Calm   1mph /  1.6km/h 88% 0.01in /  0.25mm meteobridge W/m2
16:54 73.6 °F /  23.1 °C 69.1 °F /  20.6 °C 29.85in /  1010.7hPa Calm     86% 0.01in /  0.25mm meteobridge W/m2
16:59 73.6 °F /  23.1 °C 68.4 °F /  20.2 °C 29.85in /  1010.7hPa Calm   1mph /  1.6km/h 84% 0.01in /  0.25mm meteobridge W/m2
17:04 73.6 °F /  23.1 °C 68.4 °F /  20.2 °C 29.84in /  1010.4hPa East 0.9mph /  1.4km/h 4mph /  6.4km/h 84% 0.01in /  0.25mm meteobridge W/m2
17:09 73.6 °F /  23.1 °C 68.4 °F /  20.2 °C 29.84in /  1010.4hPa Calm   1mph /  1.6km/h 84% 0.01in /  0.25mm meteobridge W/m2
17:14 73.6 °F /  23.1 °C 69.4 °F /  20.8 °C 29.84in /  1010.4hPa Calm   2mph /  3.2km/h 87% 0.01in /  0.25mm meteobridge W/m2
17:19 73.6 °F /  23.1 °C 69.8 °F /  21 °C 29.84in /  1010.4hPa Calm   1mph /  1.6km/h 88% 0in /  0mm meteobridge W/m2
17:24 73.6 °F /  23.1 °C 68.7 °F /  20.4 °C 29.83in /  1010hPa Calm     85% 0.01in /  0.25mm meteobridge W/m2
17:29 73.6 °F /  23.1 °C 69.8 °F /  21 °C 29.83in /  1010hPa Calm     88% 0.01in /  0.25mm meteobridge W/m2
17:34 73.4 °F /  23 °C 69.3 °F /  20.7 °C 29.83in /  1010hPa Calm   1mph /  1.6km/h 87% 0.01in /  0.25mm meteobridge W/m2
17:39 73.2 °F /  22.9 °C 68.7 °F /  20.4 °C 29.83in /  1010hPa Calm     86% 0.01in /  0.25mm meteobridge W/m2
17:44 73.2 °F /  22.9 °C 68.7 °F /  20.4 °C 29.82in /  1009.7hPa Calm     86% 0.01in /  0.25mm meteobridge W/m2
17:49 73.2 °F /  22.9 °C 69.1 °F /  20.6 °C 29.83in /  1010hPa Calm     87% 0.01in /  0.25mm meteobridge W/m2
17:54 73.2 °F /  22.9 °C 68.7 °F /  20.4 °C 29.82in /  1009.7hPa Calm     86% 0.01in /  0.25mm meteobridge W/m2
17:59 73.4 °F /  23 °C 68.9 °F /  20.5 °C 29.83in /  1010hPa Calm     86% 0.01in /  0.25mm meteobridge W/m2
18:04 73.6 °F /  23.1 °C 68.7 °F /  20.4 °C 29.83in /  1010hPa Calm     85% 0.01in /  0.25mm meteobridge W/m2
18:09 73.8 °F /  23.2 °C 68.9 °F /  20.5 °C 29.83in /  1010hPa Calm     85% 0.01in /  0.25mm meteobridge W/m2
18:14 73.6 °F /  23.1 °C 69.8 °F /  21 °C 29.83in /  1010hPa Calm     88% 0.01in /  0.25mm meteobridge W/m2
18:19 73.4 °F /  23 °C 69.3 °F /  20.7 °C 29.83in /  1010hPa Calm     87% 0.01in /  0.25mm meteobridge W/m2
18:24 73 °F /  22.8 °C 68.9 °F /  20.5 °C 29.84in /  1010.4hPa Calm     87% 0in /  0mm meteobridge W/m2
18:29 72.9 °F /  22.7 °C 68.7 °F /  20.4 °C 29.84in /  1010.4hPa Calm     87% 0in /  0mm meteobridge W/m2
18:34 72.7 °F /  22.6 °C 68.9 °F /  20.5 °C 29.85in /  1010.7hPa Calm     88% 0in /  0mm meteobridge W/m2
18:39 72.5 °F /  22.5 °C 68.7 °F /  20.4 °C 29.85in /  1010.7hPa Calm     88% 0in /  0mm meteobridge W/m2
18:44 72.3 °F /  22.4 °C 68.2 °F /  20.1 °C 29.85in /  1010.7hPa Calm     87% 0in /  0mm meteobridge W/m2
18:49 72.1 °F /  22.3 °C 68 °F /  20 °C 29.85in /  1010.7hPa Calm     87% 0in /  0mm meteobridge W/m2
18:54 72.1 °F /  22.3 °C 68.4 °F /  20.2 °C 29.84in /  1010.4hPa Calm     88% 0in /  0mm meteobridge W/m2
18:59 72 °F /  22.2 °C 68.2 °F /  20.1 °C 29.84in /  1010.4hPa Calm     88% 0in /  0mm meteobridge W/m2
19:04 71.8 °F /  22.1 °C 68.4 °F /  20.2 °C 29.84in /  1010.4hPa Calm     89% 0in /  0mm meteobridge W/m2
19:09 71.8 °F /  22.1 °C 68.7 °F /  20.4 °C 29.84in /  1010.4hPa Calm     90% 0.01in /  0.25mm meteobridge W/m2
19:14 71.6 °F /  22 °C 68.9 °F /  20.5 °C 29.84in /  1010.4hPa Calm     91% 0.01in /  0.25mm meteobridge W/m2
19:19 71.4 °F /  21.9 °C 68.7 °F /  20.4 °C 29.84in /  1010.4hPa Calm     91% 0.01in /  0.25mm meteobridge W/m2
19:24 71.4 °F /  21.9 °C 68.7 °F /  20.4 °C 29.84in /  1010.4hPa Calm     91% 0.01in /  0.25mm meteobridge W/m2
19:29 71.4 °F /  21.9 °C 68.9 °F /  20.5 °C 29.84in /  1010.4hPa Calm     92% 0.01in /  0.25mm meteobridge W/m2
19:34 71.2 °F /  21.8 °C 69.1 °F /  20.6 °C 29.83in /  1010hPa Calm     93% 0.01in /  0.25mm meteobridge W/m2
19:39 71.1 °F /  21.7 °C 68.9 °F /  20.5 °C 29.83in /  1010hPa Calm     93% 0.01in /  0.25mm meteobridge W/m2
19:44 70.9 °F /  21.6 °C 68.7 °F /  20.4 °C 29.82in /  1009.7hPa Calm     93% 0.01in /  0.25mm meteobridge W/m2
19:49 70.9 °F /  21.6 °C 68.7 °F /  20.4 °C 29.83in /  1010hPa Calm     93% 0.01in /  0.25mm meteobridge W/m2
19:54 70.7 °F /  21.5 °C 68.5 °F /  20.3 °C 29.83in /  1010hPa Calm     93% 0.01in /  0.25mm meteobridge W/m2
19:59 70.5 °F /  21.4 °C 68.4 °F /  20.2 °C 29.83in /  1010hPa Calm     93% 0.01in /  0.25mm meteobridge W/m2
20:04 70.3 °F /  21.3 °C 68.2 °F /  20.1 °C 29.83in /  1010hPa Calm     93% 0.01in /  0.25mm meteobridge W/m2
20:09 70.3 °F /  21.3 °C 68.5 °F /  20.3 °C 29.83in /  1010hPa Calm     94% 0in /  0mm meteobridge W/m2
20:14 70.3 °F /  21.3 °C 68.5 °F /  20.3 °C 29.83in /  1010hPa Calm     94% 0in /  0mm meteobridge W/m2
20:19 70.2 °F /  21.2 °C 68.4 °F /  20.2 °C 29.84in /  1010.4hPa Calm     94% 0in /  0mm meteobridge W/m2
20:24 70.2 °F /  21.2 °C 68.4 °F /  20.2 °C 29.84in /  1010.4hPa Calm     94% 0in /  0mm meteobridge W/m2
20:29 70.2 °F /  21.2 °C 68.7 °F /  20.4 °C 29.84in /  1010.4hPa Calm     95% 0in /  0mm meteobridge W/m2
20:34 70 °F /  21.1 °C 68.5 °F /  20.3 °C 29.84in /  1010.4hPa Calm     95% 0in /  0mm meteobridge W/m2
20:39 69.8 °F /  21 °C 68.4 °F /  20.2 °C 29.83in /  1010hPa Calm     95% 0in /  0mm meteobridge W/m2
20:44 69.8 °F /  21 °C 68.5 °F /  20.3 °C 29.83in /  1010hPa Calm     96% 0in /  0mm meteobridge W/m2
20:49 69.6 °F /  20.9 °C 68.4 °F /  20.2 °C 29.83in /  1010hPa Calm     96% 0in /  0mm meteobridge W/m2
20:54 69.6 °F /  20.9 °C 68.4 °F /  20.2 °C 29.84in /  1010.4hPa Calm     96% 0in /  0mm meteobridge W/m2
20:59 69.4 °F /  20.8 °C 68.2 °F /  20.1 °C 29.84in /  1010.4hPa East 0.9mph /  1.4km/h 4mph /  6.4km/h 96% 0in /  0mm meteobridge W/m2
21:04 69.1 °F /  20.6 °C 67.8 °F /  19.9 °C 29.84in /  1010.4hPa Calm   4mph /  6.4km/h 96% 0in /  0mm meteobridge W/m2
21:09 68.5 °F /  20.3 °C 67.3 °F /  19.6 °C 29.85in /  1010.7hPa Calm   1mph /  1.6km/h 96% 0in /  0mm meteobridge W/m2
21:14 68.4 °F /  20.2 °C 67.1 °F /  19.5 °C 29.85in /  1010.7hPa Calm   1mph /  1.6km/h 96% 0in /  0mm meteobridge W/m2
21:19 68.2 °F /  20.1 °C 66.9 °F /  19.4 °C 29.85in /  1010.7hPa Calm   1mph /  1.6km/h 96% 0in /  0mm meteobridge W/m2
21:24 68.2 °F /  20.1 °C 67.3 °F /  19.6 °C 29.85in /  1010.7hPa Calm     97% 0.01in /  0.25mm meteobridge W/m2
21:29 68.2 °F /  20.1 °C 67.3 °F /  19.6 °C 29.84in /  1010.4hPa Calm   1mph /  1.6km/h 97% 0.01in /  0.25mm meteobridge W/m2
21:34 68.2 °F /  20.1 °C 67.6 °F /  19.8 °C 29.84in /  1010.4hPa Calm     98% 0.01in /  0.25mm meteobridge W/m2
21:39 68.2 °F /  20.1 °C 67.6 °F /  19.8 °C 29.84in /  1010.4hPa Calm     98% 0.01in /  0.25mm meteobridge W/m2
21:44 68.2 °F /  20.1 °C 67.6 °F /  19.8 °C 29.84in /  1010.4hPa Calm     98% 0.01in /  0.25mm meteobridge W/m2
21:49 68.2 °F /  20.1 °C 67.6 °F /  19.8 °C 29.84in /  1010.4hPa Calm     98% 0.01in /  0.25mm meteobridge W/m2
21:54 68.2 °F /  20.1 °C 67.6 °F /  19.8 °C 29.85in /  1010.7hPa Calm     98% 0.01in /  0.25mm meteobridge W/m2
21:59 68.2 °F /  20.1 °C 67.6 °F /  19.8 °C 29.84in /  1010.4hPa Calm   3mph /  4.8km/h 98% 0.01in /  0.25mm meteobridge W/m2
22:04 68.4 °F /  20.2 °C 67.8 °F /  19.9 °C 29.84in /  1010.4hPa Calm     98% 0.01in /  0.25mm meteobridge W/m2
22:09 68.4 °F /  20.2 °C 67.8 °F /  19.9 °C 29.84in /  1010.4hPa Calm     98% 0.01in /  0.25mm meteobridge W/m2
22:14 68.2 °F /  20.1 °C 67.6 °F /  19.8 °C 29.84in /  1010.4hPa Calm     98% 0.01in /  0.25mm meteobridge W/m2
22:19 68.2 °F /  20.1 °C 67.6 °F /  19.8 °C 29.84in /  1010.4hPa Calm   1mph /  1.6km/h 98% 0.01in /  0.25mm meteobridge W/m2
22:24 68.2 °F /  20.1 °C 67.6 °F /  19.8 °C 29.84in /  1010.4hPa Calm     98% 0in /  0mm meteobridge W/m2
22:29 68.2 °F /  20.1 °C 67.6 °F /  19.8 °C 29.84in /  1010.4hPa Calm     98% 0in /  0mm meteobridge W/m2
22:34 68 °F /  20 °C 67.5 °F /  19.7 °C 29.84in /  1010.4hPa Calm     98% 0in /  0mm meteobridge W/m2
22:39 68 °F /  20 °C 67.5 °F /  19.7 °C 29.84in /  1010.4hPa Calm     98% 0in /  0mm meteobridge W/m2
22:44 68 °F /  20 °C 67.5 °F /  19.7 °C 29.83in /  1010hPa Calm     98% 0in /  0mm meteobridge W/m2
22:49 68 °F /  20 °C 67.5 °F /  19.7 °C 29.84in /  1010.4hPa Calm     98% 0in /  0mm meteobridge W/m2
22:54 67.8 °F /  19.9 °C 67.3 °F /  19.6 °C 29.84in /  1010.4hPa Calm   4mph /  6.4km/h 98% 0in /  0mm meteobridge W/m2
22:59 67.8 °F /  19.9 °C 67.3 °F /  19.6 °C 29.84in /  1010.4hPa Calm     98% 0in /  0mm meteobridge W/m2
23:04 67.8 °F /  19.9 °C 67.3 °F /  19.6 °C 29.84in /  1010.4hPa Calm   4mph /  6.4km/h 98% 0in /  0mm meteobridge W/m2
23:09 67.6 °F /  19.8 °C 67.1 °F /  19.5 °C 29.84in /  1010.4hPa Calm   3mph /  4.8km/h 98% 0in /  0mm meteobridge W/m2
23:14 67.6 °F /  19.8 °C 66.7 °F /  19.3 °C 29.84in /  1010.4hPa NNE 0.9mph /  1.4km/h 8mph /  12.9km/h 97% 0in /  0mm meteobridge W/m2
23:19 67.5 °F /  19.7 °C 66.6 °F /  19.2 °C 29.84in /  1010.4hPa Calm   1mph /  1.6km/h 97% 0in /  0mm meteobridge W/m2
23:24 67.5 °F /  19.7 °C 66.6 °F /  19.2 °C 29.84in /  1010.4hPa Calm     97% 0in /  0mm meteobridge W/m2
23:29 67.5 °F /  19.7 °C 66.6 °F /  19.2 °C 29.85in /  1010.7hPa Calm     97% 0in /  0mm meteobridge W/m2
23:34 67.5 °F /  19.7 °C 66.6 °F /  19.2 °C 29.85in /  1010.7hPa Calm     97% 0in /  0mm meteobridge W/m2
23:39 67.3 °F /  19.6 °C 66.4 °F /  19.1 °C 29.85in /  1010.7hPa NW 0.9mph /  1.4km/h 1mph /  1.6km/h 97% 0in /  0mm meteobridge W/m2
23:44 67.3 °F /  19.6 °C 66.4 °F /  19.1 °C 29.85in /  1010.7hPa Calm     97% 0in /  0mm meteobridge W/m2
23:49 67.1 °F /  19.5 °C 66.2 °F /  19 °C 29.85in /  1010.7hPa Calm   4mph /  6.4km/h 97% 0in /  0mm meteobridge W/m2
23:54 66.9 °F /  19.4 °C 66 °F /  18.9 °C 29.85in /  1010.7hPa Calm     97% 0in /  0mm meteobridge W/m2
23:59 66.7 °F /  19.3 °C 65.8 °F /  18.8 °C 29.85in /  1010.7hPa Calm   1mph /  1.6km/h 97% 0in /  0mm meteobridge W/m2
EllijayWeather
Compliments of Weather Underground - 2.5 mb